Ultimi METAR emessi

Il METAR (Aerodrome routine meteorological report) è un messaggio codificato che descrive le condizioni meteorologiche osservate da una stazione meteo. I METAR sono reperibili presso gli ARO competenti. Scopri come leggere i METAR dalla nostra guida.

La lista degli ultimi METAR emessi da stazioni meteorologiche italiane sono elencati a seguire a puro scopo informativo. L’elenco degli indicatori di località ICAO è disponibile qui.


METAR LIBA 300855Z 11003KT 9999 SCT060 23/15 Q1012 RMK BKN BKN180 VIS MIN 9999 WIND THR11 11003KT WIND THR29 /////KT BLU=
METAR LIBC 300850Z 20015KT 9999 FEW020 24/19 Q1014=
METAR LIBD 300850Z 21013KT CAVOK 27/12 Q1012=
METAR LIBE 300855Z 19011KT CAVOK 16/10 Q1014 RMK OVC OVC080 MON LIB VAL NIL VIS MIN 9999=
METAR LIBF 300850Z 15006KT 9999 FEW050 24/14 Q1012=
METAR LIBG 300850Z 20005KT 160V250 CAVOK 27/14 Q1013=
METAR LIBH 300855Z 15009KT CAVOK 26/19 Q1011 RMK FEW FEW090 QUK 2 QUL 1 S VIS MAR 20 KM VIS MIN 9999=
METAR LIBN 300855Z 18013KT 9999 SCT020 26/22 Q1013 RMK BKN BKN200 VIS MIN 9999 WIND THR14 /////KT WIND THR32 20013KT BLU=
METAR LIBP 300850Z AUTO 09004KT 030V120 9999 FEW100/// SCT130/// 22/15 Q1010=
METAR LIBQ 300855Z VRB03KT CAVOK 16/06 Q1019 RMK FEW FEW130 MON LIB VAL NIL VIS MIN 9999=
METAR LIBR 300850Z 20009KT 170V230 CAVOK 27/17 Q1013=
METAR LIBS 300755Z 21008KT 4000 -RA BR SCT012 BKN020 15/15 Q1012 RMK OVC MON INVIS VIS MIN 4000=
METAR LIBT 300755Z 17006KT 9999 BKN030 20/18 Q1008 RMK BKN QUK 1 QUL 0 VIS MAR 20 KM VIS MIN 9999=
METAR LIBU 300855Z 17002KT 9999 FEW031 21/09 Q1016 RMK FEW MON LIB VAL NIL VIS MIN 9999=
METAR LIBV 300855Z 17013KT CAVOK 24/15 Q1012 RMK BKN FEW120 SCT200 VIS MIN 9999 WIND THR32 18011KT WIND THR14 17012KT BLU=
METAR LIBW 300855Z 15010KT CAVOK 22/08 Q1014 RMK FEW FEW200 QUK 2 QUL 1 NW VIS MAR 15 KM MON LIB VAL NIL VIS MIN 9999=
METAR LIBY 300855Z 32007KT 9999 FEW020 24/21 Q1013 RMK FEW QUK 3 QUL 2 NW VIS MAR 10 KM VIS MIN 9999=
METAR LICA 300850Z AUTO 06013KT 9999 NCD 26/16 Q1012=
METAR LICB 300850Z AUTO 13009KT 090V160 9999 FEW100/// 25/20 Q1013=
METAR LICC 300850Z 06005KT 020V090 9999 FEW020 SCT050 BKN100 25/18 Q1013=
METAR LICD 300850Z AUTO 12013KT 9999 FEW041/// 28/24 Q1009=
METAR LICE 300855Z 12002KT 9999 OVC003 16/14 Q1016 RMK OVC MON INC NC VAL NIL NC VIS MIN 9999=
METAR LICF 300855Z 23010G23KT 9999 SCT020 24/20 Q1011 RMK BKN SCT200 QUK 2 QUL 0 VIS MAR 20 KM MON E CIME INC NC MON W LIB NC VIS MIN 9999=
METAR LICG 300850Z 17006KT 9999 FEW020 25/21 Q1011=
METAR LICJ 300850Z 17016KT CAVOK 28/14 Q1009 WS R20=
METAR LICL 300855Z 15005KT 9999 SCT030 25/21 Q1011 RMK BKN BKN070 QUK 2 QUL 0 VIS MAR 16 KM VIS MIN 9999=
METAR LICO 300755Z 11009KT 9999 SCT015 25/23 Q1011 RMK BKN SCT080 QUK 3 QUL 0 VIS MAR 25 KM VIS MIN 9999=
METAR LICR 300850Z AUTO 17012KT 9999 FEW045/// 27/18 Q1013=
METAR LICT 300855Z 16017KT 9999 FEW022 28/21 Q1009 RMK BKN SCT100 BKN200 VIS MIN 9999 WIND THR13 18016KT BLU=
METAR LICU 300855Z 16008KT 080V230 CAVOK 25/20 Q1011 RMK SCT SCT170 QUK 3 QUL 2 NE VIS MAR 20 KM VIS MIN 9999=
METAR LICX 300855Z 13006G20KT 9999 BKN013 17/12 Q1014 RMK BKN MON S CLD SCT NC VAL NIL NC VIS MIN 9999=
METAR LICZ 300855Z /////KT 9999 FEW025 SCT080 24/24 Q1012 RMK BKN BKN180 VIS MIN 9999 WIND THR28 08006KT WIND THR10 07007KT A2989 BLU=
METAR LIEA 300850Z VRB02KT 9999 FEW020 19/17 Q1006=
METAR LIEB 300855Z 26003KT 9999 FEW030 27/15 Q1006 RMK SCT SCT200 QUK 2 QUL 0 VIS MAR 25 KM MON W CLD SCT NC VIS MIN 9999=
METAR LIEC 300855Z 25007KT 9999 FEW020 24/20 Q1006 RMK SCT SCT200 QUK 2 QUL 0 VIS MAR 25 KM VIS MIN 9999=
METAR LIED 300855Z 18006KT 9999 FEW020 FEW023TCU 25/19 Q1006 RMK BKN SCT200 VIS MIN 9999 WIND THR35 /////KT WIND THR17 21006KT BLU=
METAR LIEE 300850Z 15009KT 9999 FEW030 24/19 Q1007=
METAR LIEF 300855Z 11004KT 9999 FEW020 SCT025 22/21 Q1007 RMK BKN QUK 3 QUL 9 VIS MAR 25 KM VIS MIN 9999=
METAR LIEH 300755Z 17011KT 9999 SCT010 17/13 Q1006 RMK OVC OVC070 QUK 3 QUL 0 VIS MAR 18 KM VIS MIN 9999=
METAR LIEL 300855Z 28004KT 9999 FEW015 26/19 Q1007 RMK SCT VIS MAR 18 KM MON LIB VIS MIN 9999=
METAR LIEO 300850Z 18005KT 100V220 9999 FEW025 SCT030 19/17 Q1007=
METAR LIEP 300855Z 26010KT 9999 FEW025 19/14 Q1008 RMK BKN SCT200 VIS MIN 9999=
METAR LIEW 300855Z AUTO 18032KT //// 10/09 Q1011=
METAR LIMC 300850Z 03006KT 9999 -RA BKN060 13/12 Q1008 NOSIG=
METAR LIME 300850Z VRB02KT 9999 VCSH SCT040 BKN080 15/12 Q1008 NOSIG=
METAR LIMF 300850Z 34003KT 310V010 7000 RA SCT007 OVC060 13/12 Q1008=
METAR LIMG 300850Z VRB02KT 9999 FEW030 19/13 Q1006=
METAR LIMH 300855Z AUTO 06004KT //// M05/M07 Q1010=
METAR LIMJ 300850Z 09004KT 9999 SCT030 BKN065 19/13 Q1006=
METAR LIMK 300855Z 36008KT 0100 -RA FG VV/// 10/10 Q1007 RMK VAL INVIS VIS MIN 0100=
METAR LIML 300850Z 02005KT 9999 -RA SCT025 BKN060 15/14 Q1008 NOSIG=
METAR LIMN 300855Z /////KT 6000 -RA FEW010 SCT030 OVC060 13/11 Q1007 RMK OVC VIS MIN 6000 WHT=
METAR LIMP 300850Z VRB02KT 2500 -RA BR BKN040 14/14 Q1008=
METAR LIMS 300855Z 25001KT 8000 -RA SCT050 BKN080 14/14 Q1007 RMK OVC VIS MIN 8000 WIND THR30 25001KT BLU=
METAR LIMU 300855Z ///06KT 9999 FEW025TCU SCT030 19/14 Q1005 RMK BKN QUK 2 QUL 1 S VIS MAR 30 KM VIS MIN 9999=
METAR LIMV 300855Z /////KT 9999 FEW005 SCT010 12/12 Q1007 RMK OVC MON N INC S LIB VAL NIL VIS MIN 9999=
METAR LIMY 300855Z 34006KT 310V060 1200 BR OVC012 12/11 Q1007 RMK OVC VAL NEBBIA VIS MIN 1200=
METAR LIMZ 300850Z AUTO 34007KT 290V360 9999 -RA OVC003/// 12/12 Q1008 REDZ=
METAR LIPA 300855Z 04007KT 9999 FEW020 SCT035 BKN070 15/14 Q1009 RMK BKN VIS MIN 9999 WIND THR05 /////KT WIND THR23 /////KT A2980 BLU=
METAR LIPB 300850Z VRB02KT 9999 -RA FEW015 BKN060 14/12 Q1010=
METAR LIPC 300855Z 18004KT 9999 -RA SCT030 BKN040 16/14 Q1008 RMK OVC VIS MIN 9999 WIND THR11 18004KT WIND THR29 18003KT BLU=
METAR LIPE 300850Z 06004KT 020V110 9999 -DZ FEW070 17/13 Q1007=
METAR LIPF 300855Z 21002KT 9999 SCT030 SCT080 18/14 Q1007 RMK BKN VIS MIN 9999=
METAR LIPH 300850Z 06007KT 9999 BKN080 17/14 Q1008=
METAR LIPI 300855Z /////KT 9999 BKN015 SCT025 17/13 Q1008 RMK OVC VIS MIN 9999 WIND THR06 03006KT WIND THR24 01004KT WHT=
METAR LIPK 300850Z VRB02KT 9000 -RA FEW020 SCT040 15/12 Q1008=
METAR LIPL 300855Z 09007KT 9999 SCT070 BKN080 16/13 Q1006 RMK BKN VIS MIN 9999 WIND THR31 08007KT WIND THR13 10007KT BLU=
METAR LIPO 300850Z AUTO 05006KT 020V080 9999 BKN080/// BKN095/// 17/13 Q1008=
METAR LIPQ 300850Z AUTO 15011KT 9999 BKN020/// 19/15 Q1009=
METAR LIPR 300850Z VRB01KT 9999 FEW050 BKN070 16/15 Q1008 RERA=
METAR LIPS 300855Z /////KT 9999 FEW035 BKN070 17/14 Q1008 RMK BKN BKN170 VIS MIN 9999 WIND THR26 03008KT WIND THR08 07007KT BLU=
METAR LIPU 300850Z 05006KT 020V090 9999 FEW040 17/14 Q1008=
METAR LIPX 300850Z 11005KT 060V140 9999 SCT090 18/13 Q1008=
METAR LIPY 300850Z AUTO 17003KT 130V210 9999 FEW095/// BKN110/// 20/15 Q1009=
METAR LIPZ 300850Z 02005KT 350V050 9999 FEW070 17/14 Q1008 NOSIG=
METAR LIQB 300855Z VRB03KT 9999 SCT016 SCT023 16/15 Q1009 RERA RMK OVC VIS MIN 9999=
METAR LIQC 300855Z 13005KT 9999 SCT018 SCT040 22/18 Q1011 RMK BKN QUK 3 QUL 2 SW VIS MAR 20 KM VIS MIN 9999=
METAR LIQJ 300855Z 16011KT 9999 FEW023 24/19 Q1008 RMK BKN SCT070 QUK 3 QUL 1 S VIS MAR 18 KM VIS MIN 9999=
METAR LIQK 300755Z 15008KT 9999 FEW030 22/22 Q1011 RMK SCT QUK 3 QUL 1 SW VIS MAR 20 KM VIS MIN 9999=
METAR LIQN 300850Z 12009KT CAVOK 21/14 Q1010=
METAR LIQO 300855Z AUTO 11001KT //// 17/16 Q1009=
METAR LIQW 300755Z /////KT 9999 -RA SCT030 BKN050 16/16 Q1006 RMK OVC VIS MIN 9999 WIND THR18 30007KT BLU=
METAR LIQZ 300855Z 17013KT 140V200 6000 OVC009 19/16 Q1010 RMK OVC QUK 3 QUL 2 SE VIS MAR 6 KM VIS MIN 6000=
METAR LIRA 300850Z 18012KT 9999 FEW020 23/17 Q1009=
METAR LIRB 300855Z 16009KT 120V210 9999 -RA FEW010 FEW020TCU BKN023 20/18 Q1010 RMK BKN VIS MIN 9999=
METAR LIRE 300855Z 12015KT 9999 SCT016 BKN040 22/19 Q1009 RMK OVC VIS MIN 9999 WIND THR13 14013KT WIND THR31/////KT BLU=
METAR LIRF 300850Z 14010KT 9999 FEW020 22/19 Q1008 NOSIG=
METAR LIRG 300855Z 14007KT 9999 FEW030 22/14 Q1009 RMK OVC BKN080 MON NE LIB NC VIS MIN 9999 BLU=
METAR LIRH 300855Z 08003KT 5000 TS BR SCT015 FEW025CB SCT030 16/15 Q1010 RMK BKN MON CIME INC NC VIS MIN 5000 WIND THR16 14003KT WHT=
METAR LIRK 300855Z AUTO 06004KT //// 08/07 Q1009=
METAR LIRL 300855Z 12013KT 9999 SCT020 FEW025CB SCT060 22/18 Q1009 RMK BKN MON LIB NC VIS MIN 9999 WIND THR12 /////KT WIND THR30 13012KT BLU=
METAR LIRM 300855Z 35006KT 5000 -TSRA FEW015CB SCT020 BKN025 19/17 Q1011 RMK OVC VIS MIN 5000 WIND THR06 /////KT WHT=
METAR LIRN 300850Z AUTO 02005KT 330V060 //// // SCT043/// BKN063/// BKN150/// 21/16 Q1012=
METAR LIRP 300845Z 12012KT 9999 FEW040 BKN080 16/12 Q1006 NOSIG RMK OVC VIS MIN 9999 WIND THR04 09011KT WIND THR22 08009KT BLU=
METAR LIRQ 300850Z VRB02KT 9999 BKN040 16/15 Q1008=
METAR LIRS 300855Z 34004KT 9999 TS FEW010 SCT018 FEW020CB BKN030 19/16 Q1007 RMK OVC VIS MIN 9999 WIND THR03 35005KT WIND THR21 35005KT BLU=
METAR LIRT 300855Z 16004KT 9999 SCT005 15/11 Q1014 RMK BKN BKN150 MON LIB VAL NIL VIS MIN 9999=
METAR LIRU 300850Z 14006KT 9999 SCT030 22/17 Q1009=
METAR LIRV 300855Z 17011KT 9999 SCT018 20/15 Q1008 RMK BKN BKN060 MON E SE CLD CIME NC VIS MIN 9999 WIND THR04/////KT BLU=
METAR LIRX 300855Z 20006KT 9999 BKN020 18/17 Q1006 RMK OVC OVC070 VIS MIN 9999 VIS MAR 15 KM=
METAR LIRY 300855Z AUTO 14006KT //// 18/15 Q1009=
METAR LIRZ 300850Z AUTO VRB02KT 9999 SCT028/// BKN094/// 19/15 Q1009=
METAR LIVC 300855Z AUTO 23011G28KT //// 04/04 Q1011=
METAR LIVD 300855Z 10008KT 6000 BKN015 07/06 Q1011 RMK BKN VIS MIN 6000=
METAR LIVE 300855Z 02002KT 9999 -RA FEW015 BKN025 07/03 Q1008 RMK OVC VIS MIN 9999=
METAR LIVF 300855Z 17002KT 9999 FEW020 FEW025TCU 16/13 Q1007 RMK BKN MON S W CIME INC NC VAL NIL VIS MIN 9999=
METAR LIVM 300855Z VRB03KT 9999 BKN020 18/13 Q1007 RMK OVC SCT090 QUK 2 QUL 1 E VIS MAR 10 KM VIS MIN 9999=
METAR LIVO 300755Z 00000KT 3000 -RA BR SCT025 BKN028 10/07 Q1009 RMK OVC VIS MIN 3000=
METAR LIVP 300855Z 19012KT 0000 -RA FG VV/// 02/02 Q1011 RMK MON INVIS VAL INVIS VIS MIN 0000=
METAR LIVR 300855Z 16007KT 0300 FG VV/// 04/03 Q1009 RMK MON INVIS VIS MIN 0300=
METAR LIVT 300855Z 14004KT 9999 BKN040 19/15 Q1009 RMK OVC SCT060 QUK 2 QUL 0 VIS MAR 10 KM VIS MIN 9999=

Informazioni elaborate dal Servizio Meteorologico dell’Aeronautica Militare e pubblicate sul sito www.meteoam.it